sensor_id;sensor_type;location;lat;lon;timestamp;P1;durP1;ratioP1;P2;durP2;ratioP2
36597;SDS011;22607;49.550;11.940;2024-02-26T00:01:13;6.35;;;1.48;;
36597;SDS011;22607;49.550;11.940;2024-02-26T00:03:42;4.63;;;1.40;;
36597;SDS011;22607;49.550;11.940;2024-02-26T00:06:11;5.53;;;1.70;;
36597;SDS011;22607;49.550;11.940;2024-02-26T00:08:39;6.55;;;2.28;;
36597;SDS011;22607;49.550;11.940;2024-02-26T00:11:06;5.70;;;1.60;;
36597;SDS011;22607;49.550;11.940;2024-02-26T00:13:33;4.90;;;1.27;;
36597;SDS011;22607;49.550;11.940;2024-02-26T00:16:07;4.78;;;1.30;;
36597;SDS011;22607;49.550;11.940;2024-02-26T00:18:36;6.55;;;1.70;;
36597;SDS011;22607;49.550;11.940;2024-02-26T00:21:07;6.65;;;1.70;;
36597;SDS011;22607;49.550;11.940;2024-02-26T00:23:35;5.53;;;1.40;;
36597;SDS011;22607;49.550;11.940;2024-02-26T00:26:03;5.13;;;1.40;;
36597;SDS011;22607;49.550;11.940;2024-02-26T00:28:33;6.20;;;1.73;;
36597;SDS011;22607;49.550;11.940;2024-02-26T00:31:01;5.45;;;1.60;;
36597;SDS011;22607;49.550;11.940;2024-02-26T00:33:28;6.35;;;1.60;;
36597;SDS011;22607;49.550;11.940;2024-02-26T00:35:59;4.57;;;1.40;;
36597;SDS011;22607;49.550;11.940;2024-02-26T00:38:27;6.75;;;1.55;;
36597;SDS011;22607;49.550;11.940;2024-02-26T00:40:54;5.80;;;1.77;;
36597;SDS011;22607;49.550;11.940;2024-02-26T00:43:21;5.47;;;1.50;;
36597;SDS011;22607;49.550;11.940;2024-02-26T00:45:50;5.93;;;1.48;;
36597;SDS011;22607;49.550;11.940;2024-02-26T00:48:19;5.75;;;1.42;;
36597;SDS011;22607;49.550;11.940;2024-02-26T00:50:49;5.22;;;1.60;;
36597;SDS011;22607;49.550;11.940;2024-02-26T00:53:16;6.05;;;1.48;;
36597;SDS011;22607;49.550;11.940;2024-02-26T00:55:43;6.00;;;1.60;;
36597;SDS011;22607;49.550;11.940;2024-02-26T00:58:13;6.63;;;1.85;;
36597;SDS011;22607;49.550;11.940;2024-02-26T01:00:40;9.50;;;2.92;;
36597;SDS011;22607;49.550;11.940;2024-02-26T01:03:07;9.50;;;3.15;;
36597;SDS011;22607;49.550;11.940;2024-02-26T01:05:38;9.50;;;3.33;;
36597;SDS011;22607;49.550;11.940;2024-02-26T01:08:07;9.63;;;3.55;;
36597;SDS011;22607;49.550;11.940;2024-02-26T01:10:34;9.30;;;3.33;;
36597;SDS011;22607;49.550;11.940;2024-02-26T01:13:05;9.50;;;3.50;;
36597;SDS011;22607;49.550;11.940;2024-02-26T01:15:34;9.15;;;2.47;;
36597;SDS011;22607;49.550;11.940;2024-02-26T01:18:01;8.07;;;2.90;;
36597;SDS011;22607;49.550;11.940;2024-02-26T01:20:29;9.32;;;2.85;;
36597;SDS011;22607;49.550;11.940;2024-02-26T01:22:56;8.93;;;3.15;;
36597;SDS011;22607;49.550;11.940;2024-02-26T01:25:25;8.68;;;3.38;;
36597;SDS011;22607;49.550;11.940;2024-02-26T01:27:54;8.43;;;2.58;;
36597;SDS011;22607;49.550;11.940;2024-02-26T01:30:21;7.68;;;2.90;;
36597;SDS011;22607;49.550;11.940;2024-02-26T01:32:48;10.48;;;3.80;;
36597;SDS011;22607;49.550;11.940;2024-02-26T01:35:15;10.20;;;4.30;;
36597;SDS011;22607;49.550;11.940;2024-02-26T01:37:42;11.30;;;4.00;;
36597;SDS011;22607;49.550;11.940;2024-02-26T01:40:10;11.20;;;4.13;;
36597;SDS011;22607;49.550;11.940;2024-02-26T01:42:42;13.27;;;4.40;;
36597;SDS011;22607;49.550;11.940;2024-02-26T01:45:15;10.25;;;3.92;;
36597;SDS011;22607;49.550;11.940;2024-02-26T01:47:51;12.20;;;4.30;;
36597;SDS011;22607;49.550;11.940;2024-02-26T01:50:22;13.68;;;5.45;;
36597;SDS011;22607;49.550;11.940;2024-02-26T01:52:50;12.23;;;4.60;;
36597;SDS011;22607;49.550;11.940;2024-02-26T01:55:19;12.82;;;4.30;;
36597;SDS011;22607;49.550;11.940;2024-02-26T01:57:53;11.00;;;4.20;;
36597;SDS011;22607;49.550;11.940;2024-02-26T02:00:21;12.85;;;4.60;;
36597;SDS011;22607;49.550;11.940;2024-02-26T02:02:49;11.32;;;3.90;;
36597;SDS011;22607;49.550;11.940;2024-02-26T02:05:20;13.55;;;4.80;;
36597;SDS011;22607;49.550;11.940;2024-02-26T02:07:54;14.43;;;4.75;;
36597;SDS011;22607;49.550;11.940;2024-02-26T02:10:20;11.48;;;4.93;;
36597;SDS011;22607;49.550;11.940;2024-02-26T02:12:55;11.90;;;4.22;;
36597;SDS011;22607;49.550;11.940;2024-02-26T02:15:22;11.73;;;4.78;;
36597;SDS011;22607;49.550;11.940;2024-02-26T02:17:50;9.48;;;3.65;;
36597;SDS011;22607;49.550;11.940;2024-02-26T02:20:17;11.57;;;4.45;;
36597;SDS011;22607;49.550;11.940;2024-02-26T02:22:45;11.27;;;4.40;;
36597;SDS011;22607;49.550;11.940;2024-02-26T02:25:16;12.75;;;4.07;;
36597;SDS011;22607;49.550;11.940;2024-02-26T02:27:45;11.57;;;3.88;;
36597;SDS011;22607;49.550;11.940;2024-02-26T02:30:16;15.17;;;4.70;;
36597;SDS011;22607;49.550;11.940;2024-02-26T02:32:44;10.30;;;4.38;;
36597;SDS011;22607;49.550;11.940;2024-02-26T02:35:14;11.82;;;4.70;;
36597;SDS011;22607;49.550;11.940;2024-02-26T02:37:43;12.50;;;4.80;;
36597;SDS011;22607;49.550;11.940;2024-02-26T02:40:13;11.27;;;3.85;;
36597;SDS011;22607;49.550;11.940;2024-02-26T02:42:43;9.93;;;3.70;;
36597;SDS011;22607;49.550;11.940;2024-02-26T02:45:11;11.82;;;4.10;;
36597;SDS011;22607;49.550;11.940;2024-02-26T02:47:41;11.95;;;4.47;;
36597;SDS011;22607;49.550;11.940;2024-02-26T02:50:08;9.35;;;3.45;;
36597;SDS011;22607;49.550;11.940;2024-02-26T02:52:35;10.40;;;4.22;;
36597;SDS011;22607;49.550;11.940;2024-02-26T02:55:05;10.82;;;4.13;;
36597;SDS011;22607;49.550;11.940;2024-02-26T02:57:34;10.27;;;3.67;;
36597;SDS011;22607;49.550;11.940;2024-02-26T03:00:10;9.50;;;3.45;;
36597;SDS011;22607;49.550;11.940;2024-02-26T03:02:37;10.35;;;4.22;;
36597;SDS011;22607;49.550;11.940;2024-02-26T03:05:06;11.82;;;3.97;;
36597;SDS011;22607;49.550;11.940;2024-02-26T03:07:33;9.88;;;3.75;;
36597;SDS011;22607;49.550;11.940;2024-02-26T03:10:01;9.82;;;3.42;;
36597;SDS011;22607;49.550;11.940;2024-02-26T03:12:29;10.30;;;3.60;;
36597;SDS011;22607;49.550;11.940;2024-02-26T03:15:01;9.95;;;3.67;;
36597;SDS011;22607;49.550;11.940;2024-02-26T03:17:29;9.77;;;4.15;;
36597;SDS011;22607;49.550;11.940;2024-02-26T03:19:58;8.55;;;3.30;;
36597;SDS011;22607;49.550;11.940;2024-02-26T03:22:27;11.18;;;6.65;;
36597;SDS011;22607;49.550;11.940;2024-02-26T03:24:54;15.90;;;9.35;;
36597;SDS011;22607;49.550;11.940;2024-02-26T03:27:21;11.00;;;4.22;;
36597;SDS011;22607;49.550;11.940;2024-02-26T03:29:50;10.70;;;4.75;;
36597;SDS011;22607;49.550;11.940;2024-02-26T03:32:19;10.30;;;4.38;;
36597;SDS011;22607;49.550;11.940;2024-02-26T03:34:46;8.38;;;3.05;;
36597;SDS011;22607;49.550;11.940;2024-02-26T03:37:15;12.05;;;4.28;;
36597;SDS011;22607;49.550;11.940;2024-02-26T03:39:44;12.45;;;5.20;;
36597;SDS011;22607;49.550;11.940;2024-02-26T03:42:11;11.27;;;4.20;;
36597;SDS011;22607;49.550;11.940;2024-02-26T03:44:38;12.82;;;5.10;;
36597;SDS011;22607;49.550;11.940;2024-02-26T03:47:05;10.95;;;4.22;;
36597;SDS011;22607;49.550;11.940;2024-02-26T03:49:31;11.75;;;4.82;;
36597;SDS011;22607;49.550;11.940;2024-02-26T03:51:58;8.85;;;3.42;;
36597;SDS011;22607;49.550;11.940;2024-02-26T03:54:25;10.43;;;3.45;;
36597;SDS011;22607;49.550;11.940;2024-02-26T03:56:52;10.63;;;3.90;;
36597;SDS011;22607;49.550;11.940;2024-02-26T03:59:19;12.65;;;3.83;;
36597;SDS011;22607;49.550;11.940;2024-02-26T04:01:48;10.73;;;3.88;;
36597;SDS011;22607;49.550;11.940;2024-02-26T04:04:20;11.52;;;4.45;;
36597;SDS011;22607;49.550;11.940;2024-02-26T04:06:50;10.77;;;3.85;;
36597;SDS011;22607;49.550;11.940;2024-02-26T04:09:20;10.27;;;3.60;;
36597;SDS011;22607;49.550;11.940;2024-02-26T04:11:47;11.60;;;4.07;;
36597;SDS011;22607;49.550;11.940;2024-02-26T04:14:14;9.48;;;3.38;;
36597;SDS011;22607;49.550;11.940;2024-02-26T04:16:41;10.55;;;3.80;;
36597;SDS011;22607;49.550;11.940;2024-02-26T04:19:10;9.15;;;3.42;;
36597;SDS011;22607;49.550;11.940;2024-02-26T04:21:37;9.50;;;3.53;;
36597;SDS011;22607;49.550;11.940;2024-02-26T04:24:04;11.15;;;3.75;;
36597;SDS011;22607;49.550;11.940;2024-02-26T04:26:34;10.00;;;3.80;;
36597;SDS011;22607;49.550;11.940;2024-02-26T04:29:01;11.73;;;4.50;;
36597;SDS011;22607;49.550;11.940;2024-02-26T04:31:28;13.73;;;5.28;;
36597;SDS011;22607;49.550;11.940;2024-02-26T04:33:57;11.43;;;5.18;;
36597;SDS011;22607;49.550;11.940;2024-02-26T04:36:26;11.50;;;4.57;;
36597;SDS011;22607;49.550;11.940;2024-02-26T04:38:55;12.82;;;5.38;;
36597;SDS011;22607;49.550;11.940;2024-02-26T04:41:26;15.50;;;5.90;;
36597;SDS011;22607;49.550;11.940;2024-02-26T04:43:54;14.13;;;5.82;;
36597;SDS011;22607;49.550;11.940;2024-02-26T04:46:21;12.27;;;5.65;;
36597;SDS011;22607;49.550;11.940;2024-02-26T04:48:50;12.73;;;5.45;;
36597;SDS011;22607;49.550;11.940;2024-02-26T04:51:23;11.95;;;4.38;;
36597;SDS011;22607;49.550;11.940;2024-02-26T04:53:50;12.75;;;4.55;;
36597;SDS011;22607;49.550;11.940;2024-02-26T04:56:20;13.18;;;4.88;;
36597;SDS011;22607;49.550;11.940;2024-02-26T04:58:50;11.95;;;5.20;;
36597;SDS011;22607;49.550;11.940;2024-02-26T05:01:17;14.85;;;5.75;;
36597;SDS011;22607;49.550;11.940;2024-02-26T05:03:50;14.25;;;5.88;;
36597;SDS011;22607;49.550;11.940;2024-02-26T05:06:17;12.68;;;5.30;;
36597;SDS011;22607;49.550;11.940;2024-02-26T05:08:50;15.52;;;6.18;;
36597;SDS011;22607;49.550;11.940;2024-02-26T05:11:17;14.02;;;5.97;;
36597;SDS011;22607;49.550;11.940;2024-02-26T05:13:47;15.43;;;6.18;;
36597;SDS011;22607;49.550;11.940;2024-02-26T05:16:18;15.93;;;6.50;;
36597;SDS011;22607;49.550;11.940;2024-02-26T05:18:47;15.93;;;6.45;;
36597;SDS011;22607;49.550;11.940;2024-02-26T05:21:14;12.25;;;4.70;;
36597;SDS011;22607;49.550;11.940;2024-02-26T05:23:43;12.10;;;4.95;;
36597;SDS011;22607;49.550;11.940;2024-02-26T05:26:10;11.30;;;4.60;;
36597;SDS011;22607;49.550;11.940;2024-02-26T05:28:39;10.77;;;4.00;;
36597;SDS011;22607;49.550;11.940;2024-02-26T05:31:09;12.13;;;4.82;;
36597;SDS011;22607;49.550;11.940;2024-02-26T05:33:40;10.93;;;4.93;;
36597;SDS011;22607;49.550;11.940;2024-02-26T05:36:10;12.95;;;5.18;;
36597;SDS011;22607;49.550;11.940;2024-02-26T05:38:48;12.38;;;4.68;;
36597;SDS011;22607;49.550;11.940;2024-02-26T05:41:16;11.63;;;5.10;;
36597;SDS011;22607;49.550;11.940;2024-02-26T05:43:50;14.20;;;5.70;;
36597;SDS011;22607;49.550;11.940;2024-02-26T05:46:18;15.98;;;7.40;;
36597;SDS011;22607;49.550;11.940;2024-02-26T05:48:51;17.27;;;7.05;;
36597;SDS011;22607;49.550;11.940;2024-02-26T05:51:20;17.38;;;7.80;;
36597;SDS011;22607;49.550;11.940;2024-02-26T05:53:48;18.60;;;7.60;;
36597;SDS011;22607;49.550;11.940;2024-02-26T05:56:24;19.00;;;8.70;;
36597;SDS011;22607;49.550;11.940;2024-02-26T05:58:51;20.55;;;9.38;;
36597;SDS011;22607;49.550;11.940;2024-02-26T06:01:19;18.42;;;8.23;;
36597;SDS011;22607;49.550;11.940;2024-02-26T06:03:52;18.15;;;8.70;;
36597;SDS011;22607;49.550;11.940;2024-02-26T06:06:19;17.23;;;7.47;;
36597;SDS011;22607;49.550;11.940;2024-02-26T06:08:48;16.40;;;7.35;;
36597;SDS011;22607;49.550;11.940;2024-02-26T06:11:16;18.95;;;8.23;;
36597;SDS011;22607;49.550;11.940;2024-02-26T06:13:42;15.85;;;7.82;;
36597;SDS011;22607;49.550;11.940;2024-02-26T06:16:09;19.50;;;6.70;;
36597;SDS011;22607;49.550;11.940;2024-02-26T06:18:36;16.75;;;7.93;;
36597;SDS011;22607;49.550;11.940;2024-02-26T06:21:09;15.05;;;7.30;;
36597;SDS011;22607;49.550;11.940;2024-02-26T06:23:40;15.13;;;6.88;;
36597;SDS011;22607;49.550;11.940;2024-02-26T06:26:07;17.80;;;7.40;;
36597;SDS011;22607;49.550;11.940;2024-02-26T06:28:36;16.88;;;6.68;;
36597;SDS011;22607;49.550;11.940;2024-02-26T06:31:12;15.13;;;7.32;;
36597;SDS011;22607;49.550;11.940;2024-02-26T06:33:41;18.08;;;8.25;;
36597;SDS011;22607;49.550;11.940;2024-02-26T06:36:09;17.92;;;8.63;;
36597;SDS011;22607;49.550;11.940;2024-02-26T06:38:38;18.17;;;8.02;;
36597;SDS011;22607;49.550;11.940;2024-02-26T06:41:08;15.23;;;6.90;;
36597;SDS011;22607;49.550;11.940;2024-02-26T06:43:36;17.33;;;7.72;;
36597;SDS011;22607;49.550;11.940;2024-02-26T06:46:08;17.17;;;7.97;;
36597;SDS011;22607;49.550;11.940;2024-02-26T06:48:39;20.58;;;10.75;;
36597;SDS011;22607;49.550;11.940;2024-02-26T06:51:10;22.15;;;13.57;;
36597;SDS011;22607;49.550;11.940;2024-02-26T06:53:37;21.45;;;10.50;;
36597;SDS011;22607;49.550;11.940;2024-02-26T06:56:04;18.55;;;9.07;;
36597;SDS011;22607;49.550;11.940;2024-02-26T06:58:31;21.90;;;10.35;;
36597;SDS011;22607;49.550;11.940;2024-02-26T07:00:58;20.48;;;8.70;;
36597;SDS011;22607;49.550;11.940;2024-02-26T07:03:25;18.83;;;8.75;;
36597;SDS011;22607;49.550;11.940;2024-02-26T07:05:56;18.10;;;9.05;;
36597;SDS011;22607;49.550;11.940;2024-02-26T07:10:51;16.02;;;7.15;;
36597;SDS011;22607;49.550;11.940;2024-02-26T07:13:18;15.70;;;7.40;;
36597;SDS011;22607;49.550;11.940;2024-02-26T07:15:47;16.08;;;7.70;;
36597;SDS011;22607;49.550;11.940;2024-02-26T07:18:14;15.02;;;7.43;;
36597;SDS011;22607;49.550;11.940;2024-02-26T07:20:44;14.07;;;6.05;;
36597;SDS011;22607;49.550;11.940;2024-02-26T07:23:14;14.55;;;6.57;;
36597;SDS011;22607;49.550;11.940;2024-02-26T07:25:44;15.88;;;7.15;;
36597;SDS011;22607;49.550;11.940;2024-02-26T07:28:14;16.52;;;7.60;;
36597;SDS011;22607;49.550;11.940;2024-02-26T07:30:43;15.30;;;7.18;;
36597;SDS011;22607;49.550;11.940;2024-02-26T07:33:20;14.68;;;6.88;;
36597;SDS011;22607;49.550;11.940;2024-02-26T07:35:51;14.65;;;6.85;;
36597;SDS011;22607;49.550;11.940;2024-02-26T07:38:20;19.23;;;8.18;;
36597;SDS011;22607;49.550;11.940;2024-02-26T07:41:10;15.45;;;6.82;;
36597;SDS011;22607;49.550;11.940;2024-02-26T07:43:38;14.20;;;6.90;;
36597;SDS011;22607;49.550;11.940;2024-02-26T07:46:05;15.93;;;7.97;;
36597;SDS011;22607;49.550;11.940;2024-02-26T07:48:36;15.10;;;7.25;;
36597;SDS011;22607;49.550;11.940;2024-02-26T07:51:06;14.65;;;6.82;;
36597;SDS011;22607;49.550;11.940;2024-02-26T07:53:36;13.73;;;6.40;;
36597;SDS011;22607;49.550;11.940;2024-02-26T07:56:03;15.85;;;7.20;;
36597;SDS011;22607;49.550;11.940;2024-02-26T07:58:31;15.57;;;6.80;;
36597;SDS011;22607;49.550;11.940;2024-02-26T08:01:04;15.80;;;7.43;;
36597;SDS011;22607;49.550;11.940;2024-02-26T08:03:33;13.38;;;6.38;;
36597;SDS011;22607;49.550;11.940;2024-02-26T08:06:02;14.23;;;6.47;;
36597;SDS011;22607;49.550;11.940;2024-02-26T08:08:35;13.55;;;6.20;;
36597;SDS011;22607;49.550;11.940;2024-02-26T08:11:04;15.13;;;7.30;;
36597;SDS011;22607;49.550;11.940;2024-02-26T08:13:33;13.52;;;6.32;;
36597;SDS011;22607;49.550;11.940;2024-02-26T08:16:00;13.50;;;6.30;;
36597;SDS011;22607;49.550;11.940;2024-02-26T08:18:29;15.02;;;7.13;;
36597;SDS011;22607;49.550;11.940;2024-02-26T08:21:01;14.02;;;5.82;;
36597;SDS011;22607;49.550;11.940;2024-02-26T08:23:32;15.48;;;6.20;;
36597;SDS011;22607;49.550;11.940;2024-02-26T08:26:07;16.27;;;7.20;;
36597;SDS011;22607;49.550;11.940;2024-02-26T08:28:37;15.02;;;6.57;;
36597;SDS011;22607;49.550;11.940;2024-02-26T08:31:07;15.00;;;7.03;;
36597;SDS011;22607;49.550;11.940;2024-02-26T08:33:37;14.77;;;6.15;;
36597;SDS011;22607;49.550;11.940;2024-02-26T08:36:05;16.92;;;8.07;;
36597;SDS011;22607;49.550;11.940;2024-02-26T08:38:32;17.23;;;7.80;;
36597;SDS011;22607;49.550;11.940;2024-02-26T08:41:04;16.85;;;8.10;;
36597;SDS011;22607;49.550;11.940;2024-02-26T08:46:02;15.23;;;6.60;;
36597;SDS011;22607;49.550;11.940;2024-02-26T08:48:29;16.17;;;6.97;;
36597;SDS011;22607;49.550;11.940;2024-02-26T08:50:58;15.75;;;6.95;;
36597;SDS011;22607;49.550;11.940;2024-02-26T08:53:25;14.90;;;7.00;;
36597;SDS011;22607;49.550;11.940;2024-02-26T08:56:09;14.82;;;6.68;;
36597;SDS011;22607;49.550;11.940;2024-02-26T08:58:46;14.00;;;6.25;;
36597;SDS011;22607;49.550;11.940;2024-02-26T09:01:15;13.48;;;5.97;;
36597;SDS011;22607;49.550;11.940;2024-02-26T09:03:44;14.70;;;6.43;;
36597;SDS011;22607;49.550;11.940;2024-02-26T09:06:11;15.80;;;7.20;;
36597;SDS011;22607;49.550;11.940;2024-02-26T09:08:41;15.40;;;6.70;;
36597;SDS011;22607;49.550;11.940;2024-02-26T09:11:11;17.17;;;7.40;;
36597;SDS011;22607;49.550;11.940;2024-02-26T09:13:41;15.15;;;6.13;;
36597;SDS011;22607;49.550;11.940;2024-02-26T09:16:11;15.57;;;7.72;;
36597;SDS011;22607;49.550;11.940;2024-02-26T09:18:39;17.60;;;8.25;;
36597;SDS011;22607;49.550;11.940;2024-02-26T09:21:09;12.27;;;5.85;;
36597;SDS011;22607;49.550;11.940;2024-02-26T09:23:37;15.25;;;6.75;;
36597;SDS011;22607;49.550;11.940;2024-02-26T09:26:05;14.07;;;6.45;;
36597;SDS011;22607;49.550;11.940;2024-02-26T09:28:36;14.07;;;6.10;;
36597;SDS011;22607;49.550;11.940;2024-02-26T09:31:04;10.98;;;5.22;;
36597;SDS011;22607;49.550;11.940;2024-02-26T09:33:35;13.27;;;6.47;;
36597;SDS011;22607;49.550;11.940;2024-02-26T09:36:03;11.48;;;5.03;;
36597;SDS011;22607;49.550;11.940;2024-02-26T09:38:30;10.70;;;4.82;;
36597;SDS011;22607;49.550;11.940;2024-02-26T09:41:16;11.93;;;5.40;;
36597;SDS011;22607;49.550;11.940;2024-02-26T09:43:45;9.95;;;4.70;;
36597;SDS011;22607;49.550;11.940;2024-02-26T09:46:16;10.68;;;4.85;;
36597;SDS011;22607;49.550;11.940;2024-02-26T09:48:46;10.52;;;4.70;;
36597;SDS011;22607;49.550;11.940;2024-02-26T09:51:14;10.68;;;4.93;;
36597;SDS011;22607;49.550;11.940;2024-02-26T09:53:43;13.18;;;4.95;;
36597;SDS011;22607;49.550;11.940;2024-02-26T09:56:17;10.65;;;4.75;;
36597;SDS011;22607;49.550;11.940;2024-02-26T09:58:48;10.38;;;4.43;;
36597;SDS011;22607;49.550;11.940;2024-02-26T10:01:21;11.50;;;4.85;;
36597;SDS011;22607;49.550;11.940;2024-02-26T10:03:58;10.27;;;5.00;;
36597;SDS011;22607;49.550;11.940;2024-02-26T10:06:28;12.15;;;5.60;;
36597;SDS011;22607;49.550;11.940;2024-02-26T10:08:58;11.50;;;5.65;;
36597;SDS011;22607;49.550;11.940;2024-02-26T10:11:29;10.43;;;4.55;;
36597;SDS011;22607;49.550;11.940;2024-02-26T10:14:00;10.68;;;5.25;;
36597;SDS011;22607;49.550;11.940;2024-02-26T10:16:30;11.82;;;5.32;;
36597;SDS011;22607;49.550;11.940;2024-02-26T10:19:04;10.98;;;4.80;;
36597;SDS011;22607;49.550;11.940;2024-02-26T10:21:31;10.10;;;4.57;;
36597;SDS011;22607;49.550;11.940;2024-02-26T10:23:58;11.68;;;5.53;;
36597;SDS011;22607;49.550;11.940;2024-02-26T10:26:25;10.88;;;4.70;;
36597;SDS011;22607;49.550;11.940;2024-02-26T10:28:55;11.98;;;5.63;;
36597;SDS011;22607;49.550;11.940;2024-02-26T10:31:26;10.77;;;4.80;;
36597;SDS011;22607;49.550;11.940;2024-02-26T10:33:57;10.32;;;4.57;;
36597;SDS011;22607;49.550;11.940;2024-02-26T10:36:33;10.27;;;4.65;;
36597;SDS011;22607;49.550;11.940;2024-02-26T10:39:17;9.75;;;4.22;;
36597;SDS011;22607;49.550;11.940;2024-02-26T10:41:46;10.98;;;4.80;;
36597;SDS011;22607;49.550;11.940;2024-02-26T10:44:13;10.25;;;4.75;;
36597;SDS011;22607;49.550;11.940;2024-02-26T10:46:48;10.23;;;4.25;;
36597;SDS011;22607;49.550;11.940;2024-02-26T10:49:20;8.88;;;3.70;;
36597;SDS011;22607;49.550;11.940;2024-02-26T10:51:55;10.55;;;4.82;;
36597;SDS011;22607;49.550;11.940;2024-02-26T10:54:29;9.98;;;4.47;;
36597;SDS011;22607;49.550;11.940;2024-02-26T10:56:59;11.32;;;4.50;;
36597;SDS011;22607;49.550;11.940;2024-02-26T10:59:27;11.30;;;4.85;;
36597;SDS011;22607;49.550;11.940;2024-02-26T11:01:59;10.73;;;4.72;;
36597;SDS011;22607;49.550;11.940;2024-02-26T11:04:36;10.45;;;4.07;;
36597;SDS011;22607;49.550;11.940;2024-02-26T11:07:10;10.90;;;5.00;;
36597;SDS011;22607;49.550;11.940;2024-02-26T11:09:41;10.93;;;5.40;;
36597;SDS011;22607;49.550;11.940;2024-02-26T11:12:15;10.82;;;4.85;;
36597;SDS011;22607;49.550;11.940;2024-02-26T11:14:45;11.48;;;4.93;;
36597;SDS011;22607;49.550;11.940;2024-02-26T11:17:13;10.82;;;5.35;;
36597;SDS011;22607;49.550;11.940;2024-02-26T11:19:47;11.40;;;4.80;;
36597;SDS011;22607;49.550;11.940;2024-02-26T11:22:16;11.45;;;4.80;;
36597;SDS011;22607;49.550;11.940;2024-02-26T11:24:50;11.05;;;4.82;;
36597;SDS011;22607;49.550;11.940;2024-02-26T11:27:18;11.43;;;5.10;;
36597;SDS011;22607;49.550;11.940;2024-02-26T11:29:50;9.77;;;4.47;;
36597;SDS011;22607;49.550;11.940;2024-02-26T11:32:18;10.18;;;4.18;;
36597;SDS011;22607;49.550;11.940;2024-02-26T11:34:48;10.70;;;4.80;;
36597;SDS011;22607;49.550;11.940;2024-02-26T11:37:16;12.65;;;4.93;;
36597;SDS011;22607;49.550;11.940;2024-02-26T11:39:47;10.68;;;4.90;;
36597;SDS011;22607;49.550;11.940;2024-02-26T11:42:15;10.80;;;4.72;;
36597;SDS011;22607;49.550;11.940;2024-02-26T11:44:45;10.88;;;4.65;;
36597;SDS011;22607;49.550;11.940;2024-02-26T11:47:19;10.38;;;3.75;;
36597;SDS011;22607;49.550;11.940;2024-02-26T11:49:50;9.85;;;4.15;;
36597;SDS011;22607;49.550;11.940;2024-02-26T11:52:17;9.40;;;4.00;;
36597;SDS011;22607;49.550;11.940;2024-02-26T11:57:26;10.18;;;4.55;;
36597;SDS011;22607;49.550;11.940;2024-02-26T12:00:03;10.63;;;4.53;;
36597;SDS011;22607;49.550;11.940;2024-02-26T12:02:51;10.52;;;4.07;;
36597;SDS011;22607;49.550;11.940;2024-02-26T12:05:30;8.38;;;3.53;;
36597;SDS011;22607;49.550;11.940;2024-02-26T12:07:59;10.27;;;4.90;;
36597;SDS011;22607;49.550;11.940;2024-02-26T12:10:30;10.20;;;4.18;;
36597;SDS011;22607;49.550;11.940;2024-02-26T12:13:13;9.82;;;4.25;;
36597;SDS011;22607;49.550;11.940;2024-02-26T12:18:24;10.20;;;4.13;;
36597;SDS011;22607;49.550;11.940;2024-02-26T12:23:30;9.00;;;3.60;;
36597;SDS011;22607;49.550;11.940;2024-02-26T12:26:01;9.88;;;4.38;;
36597;SDS011;22607;49.550;11.940;2024-02-26T12:28:34;10.88;;;4.68;;
36597;SDS011;22607;49.550;11.940;2024-02-26T12:31:01;9.93;;;4.05;;
36597;SDS011;22607;49.550;11.940;2024-02-26T12:33:31;9.77;;;3.95;;
36597;SDS011;22607;49.550;11.940;2024-02-26T12:36:01;9.80;;;4.60;;
36597;SDS011;22607;49.550;11.940;2024-02-26T12:38:28;10.55;;;4.93;;
36597;SDS011;22607;49.550;11.940;2024-02-26T12:41:01;10.52;;;5.20;;
36597;SDS011;22607;49.550;11.940;2024-02-26T12:43:31;8.90;;;4.10;;
36597;SDS011;22607;49.550;11.940;2024-02-26T12:45:58;10.95;;;4.60;;
36597;SDS011;22607;49.550;11.940;2024-02-26T12:48:32;8.85;;;3.72;;
36597;SDS011;22607;49.550;11.940;2024-02-26T12:50:59;8.52;;;3.53;;
36597;SDS011;22607;49.550;11.940;2024-02-26T12:53:27;10.05;;;4.03;;
36597;SDS011;22607;49.550;11.940;2024-02-26T12:55:54;9.70;;;4.50;;
36597;SDS011;22607;49.550;11.940;2024-02-26T12:58:22;13.32;;;6.72;;
36597;SDS011;22607;49.550;11.940;2024-02-26T13:00:55;13.00;;;5.22;;
36597;SDS011;22607;49.550;11.940;2024-02-26T13:03:23;9.57;;;3.88;;
36597;SDS011;22607;49.550;11.940;2024-02-26T13:05:50;8.98;;;3.88;;
36597;SDS011;22607;49.550;11.940;2024-02-26T13:08:18;9.07;;;3.83;;
36597;SDS011;22607;49.550;11.940;2024-02-26T13:10:49;9.40;;;3.83;;
36597;SDS011;22607;49.550;11.940;2024-02-26T13:13:20;10.63;;;4.45;;
36597;SDS011;22607;49.550;11.940;2024-02-26T13:15:49;11.75;;;5.32;;
36597;SDS011;22607;49.550;11.940;2024-02-26T13:18:15;10.70;;;4.43;;
36597;SDS011;22607;49.550;11.940;2024-02-26T13:20:42;9.20;;;3.92;;
36597;SDS011;22607;49.550;11.940;2024-02-26T13:23:13;8.80;;;3.70;;
36597;SDS011;22607;49.550;11.940;2024-02-26T13:25:40;9.32;;;3.65;;
36597;SDS011;22607;49.550;11.940;2024-02-26T13:28:15;9.02;;;3.80;;
36597;SDS011;22607;49.550;11.940;2024-02-26T13:30:51;9.35;;;4.22;;
36597;SDS011;22607;49.550;11.940;2024-02-26T13:33:27;10.27;;;4.63;;
36597;SDS011;22607;49.550;11.940;2024-02-26T13:35:55;12.27;;;5.40;;
36597;SDS011;22607;49.550;11.940;2024-02-26T13:38:23;9.15;;;4.10;;
36597;SDS011;22607;49.550;11.940;2024-02-26T13:40:50;9.32;;;3.78;;
36597;SDS011;22607;49.550;11.940;2024-02-26T13:43:20;9.25;;;4.32;;
36597;SDS011;22607;49.550;11.940;2024-02-26T13:45:55;9.38;;;4.00;;
36597;SDS011;22607;49.550;11.940;2024-02-26T13:48:23;9.63;;;4.43;;
36597;SDS011;22607;49.550;11.940;2024-02-26T13:50:54;9.70;;;4.68;;
36597;SDS011;22607;49.550;11.940;2024-02-26T13:53:21;10.95;;;4.70;;
36597;SDS011;22607;49.550;11.940;2024-02-26T13:55:50;10.63;;;5.05;;
36597;SDS011;22607;49.550;11.940;2024-02-26T13:58:18;10.55;;;4.60;;
36597;SDS011;22607;49.550;11.940;2024-02-26T14:00:49;10.88;;;5.20;;
36597;SDS011;22607;49.550;11.940;2024-02-26T14:03:16;11.52;;;4.97;;
36597;SDS011;22607;49.550;11.940;2024-02-26T14:05:43;11.25;;;5.38;;
36597;SDS011;22607;49.550;11.940;2024-02-26T14:08:16;11.77;;;5.18;;
36597;SDS011;22607;49.550;11.940;2024-02-26T14:10:43;11.95;;;5.78;;
36597;SDS011;22607;49.550;11.940;2024-02-26T14:13:11;11.10;;;5.65;;
36597;SDS011;22607;49.550;11.940;2024-02-26T14:15:40;12.35;;;6.50;;
36597;SDS011;22607;49.550;11.940;2024-02-26T14:18:08;12.68;;;6.40;;
36597;SDS011;22607;49.550;11.940;2024-02-26T14:20:36;11.18;;;5.45;;
36597;SDS011;22607;49.550;11.940;2024-02-26T14:23:10;12.57;;;6.55;;
36597;SDS011;22607;49.550;11.940;2024-02-26T14:25:37;11.05;;;4.93;;
36597;SDS011;22607;49.550;11.940;2024-02-26T14:28:06;12.52;;;6.15;;
36597;SDS011;22607;49.550;11.940;2024-02-26T14:30:37;12.23;;;6.35;;
36597;SDS011;22607;49.550;11.940;2024-02-26T14:33:05;11.27;;;5.72;;
36597;SDS011;22607;49.550;11.940;2024-02-26T14:35:32;10.93;;;5.45;;
36597;SDS011;22607;49.550;11.940;2024-02-26T14:38:00;12.25;;;5.88;;
36597;SDS011;22607;49.550;11.940;2024-02-26T14:40:29;13.18;;;6.10;;
36597;SDS011;22607;49.550;11.940;2024-02-26T14:42:56;12.27;;;6.18;;
36597;SDS011;22607;49.550;11.940;2024-02-26T14:45:24;13.73;;;6.72;;
36597;SDS011;22607;49.550;11.940;2024-02-26T14:47:52;13.48;;;6.25;;
36597;SDS011;22607;49.550;11.940;2024-02-26T14:50:20;12.70;;;6.03;;